sensor_id;sensor_type;location;lat;lon;timestamp;pressure;altitude;pressure_sealevel;temperature;humidity
67430;BME280;54298;52.076;5.264;2023-03-26T00:00:58;100612.0;;;9.51;84.22
67430;BME280;54298;52.076;5.264;2023-03-26T00:02:34;100614.0;;;9.5;84.16
67430;BME280;54298;52.076;5.264;2023-03-26T00:05:48;100617.0;;;9.39;84.92
67430;BME280;54298;52.076;5.264;2023-03-26T00:07:25;100613.0;;;9.41;84.95
67430;BME280;54298;52.076;5.264;2023-03-26T00:09:01;100614.0;;;9.48;84.68
67430;BME280;54298;52.076;5.264;2023-03-26T00:10:40;100608.0;;;9.44;84.84
67430;BME280;54298;52.076;5.264;2023-03-26T00:13:54;100605.0;;;9.52;84.54
67430;BME280;54298;52.076;5.264;2023-03-26T00:15:33;100606.0;;;9.49;84.67
67430;BME280;54298;52.076;5.264;2023-03-26T00:17:10;100607.0;;;9.49;84.81
67430;BME280;54298;52.076;5.264;2023-03-26T00:20:22;100609.0;;;9.48;84.86
67430;BME280;54298;52.076;5.264;2023-03-26T00:21:59;100607.0;;;9.55;84.91
67430;BME280;54298;52.076;5.264;2023-03-26T00:23:35;100603.0;;;9.53;85.05
67430;BME280;54298;52.076;5.264;2023-03-26T00:26:49;100605.0;;;9.6;85.06
67430;BME280;54298;52.076;5.264;2023-03-26T00:28:25;100598.0;;;9.67;84.67
67430;BME280;54298;52.076;5.264;2023-03-26T00:30:03;100600.0;;;9.61;85.0
67430;BME280;54298;52.076;5.264;2023-03-26T00:31:39;100597.0;;;9.64;85.01
67430;BME280;54298;52.076;5.264;2023-03-26T00:34:53;100589.0;;;9.72;84.74
67430;BME280;54298;52.076;5.264;2023-03-26T00:36:30;100587.0;;;9.69;84.76
67430;BME280;54298;52.076;5.264;2023-03-26T00:38:07;100583.0;;;9.71;84.96
67430;BME280;54298;52.076;5.264;2023-03-26T00:41:20;100582.0;;;9.72;84.91
67430;BME280;54298;52.076;5.264;2023-03-26T00:42:58;100570.0;;;9.72;84.92
67430;BME280;54298;52.076;5.264;2023-03-26T00:44:34;100568.0;;;9.65;85.34
67430;BME280;54298;52.076;5.264;2023-03-26T00:46:11;100568.0;;;9.64;85.56
67430;BME280;54298;52.076;5.264;2023-03-26T00:49:24;100564.0;;;9.66;85.43
67430;BME280;54298;52.076;5.264;2023-03-26T00:51:00;100562.0;;;9.66;85.49
67430;BME280;54298;52.076;5.264;2023-03-26T00:52:36;100565.0;;;9.64;85.67
67430;BME280;54298;52.076;5.264;2023-03-26T00:55:48;100565.0;;;9.69;85.63
67430;BME280;54298;52.076;5.264;2023-03-26T00:57:25;100566.0;;;9.69;85.38
67430;BME280;54298;52.076;5.264;2023-03-26T00:59:01;100563.0;;;9.71;85.46
67430;BME280;54298;52.076;5.264;2023-03-26T01:02:21;100561.0;;;9.72;85.5
67430;BME280;54298;52.076;5.264;2023-03-26T01:04:20;100559.0;;;9.69;85.59
67430;BME280;54298;52.076;5.264;2023-03-26T01:05:59;100559.0;;;9.57;86.27
67430;BME280;54298;52.076;5.264;2023-03-26T01:07:36;100552.0;;;9.5;86.82
67430;BME280;54298;52.076;5.264;2023-03-26T01:09:14;100550.0;;;9.42;87.46
67430;BME280;54298;52.076;5.264;2023-03-26T01:12:33;100545.0;;;9.41;87.57
67430;BME280;54298;52.076;5.264;2023-03-26T01:14:11;100543.0;;;9.48;87.31
67430;BME280;54298;52.076;5.264;2023-03-26T01:15:49;100530.0;;;9.48;87.33
67430;BME280;54298;52.076;5.264;2023-03-26T01:19:07;100534.0;;;9.6;86.94
67430;BME280;54298;52.076;5.264;2023-03-26T01:20:48;100530.0;;;9.49;87.19
67430;BME280;54298;52.076;5.264;2023-03-26T01:22:26;100530.0;;;9.47;87.29
67430;BME280;54298;52.076;5.264;2023-03-26T01:24:04;100527.0;;;9.32;88.01
67430;BME280;54298;52.076;5.264;2023-03-26T01:27:30;100522.0;;;9.32;88.09
67430;BME280;54298;52.076;5.264;2023-03-26T01:29:16;100521.0;;;9.38;87.97
67430;BME280;54298;52.076;5.264;2023-03-26T01:30:59;100515.0;;;9.46;87.62
67430;BME280;54298;52.076;5.264;2023-03-26T01:32:49;100512.0;;;9.5;87.31
67430;BME280;54298;52.076;5.264;2023-03-26T01:34:39;100514.0;;;9.39;87.81
67430;BME280;54298;52.076;5.264;2023-03-26T01:38:14;100511.0;;;9.32;88.28
67430;BME280;54298;52.076;5.264;2023-03-26T01:40:00;100511.0;;;9.33;88.52
67430;BME280;54298;52.076;5.264;2023-03-26T01:41:44;100509.0;;;9.39;87.94
67430;BME280;54298;52.076;5.264;2023-03-26T01:43:27;100505.0;;;9.24;88.58
67430;BME280;54298;52.076;5.264;2023-03-26T01:45:10;100500.0;;;9.36;88.33
67430;BME280;54298;52.076;5.264;2023-03-26T01:46:51;100500.0;;;9.24;88.53
67430;BME280;54298;52.076;5.264;2023-03-26T01:50:09;100498.0;;;9.23;88.49
67430;BME280;54298;52.076;5.264;2023-03-26T01:51:46;100498.0;;;9.24;88.95
67430;BME280;54298;52.076;5.264;2023-03-26T01:53:23;100492.0;;;9.16;89.43
67430;BME280;54298;52.076;5.264;2023-03-26T01:56:45;100491.0;;;9.17;89.74
67430;BME280;54298;52.076;5.264;2023-03-26T01:58:30;100486.0;;;9.28;89.34
67430;BME280;54298;52.076;5.264;2023-03-26T02:00:18;100476.0;;;9.31;89.16
67430;BME280;54298;52.076;5.264;2023-03-26T02:02:04;100482.0;;;9.24;89.53
67430;BME280;54298;52.076;5.264;2023-03-26T02:03:49;100475.0;;;9.4;89.21
67430;BME280;54298;52.076;5.264;2023-03-26T02:07:13;100475.0;;;9.28;89.26
67430;BME280;54298;52.076;5.264;2023-03-26T02:08:57;100470.0;;;9.23;89.9
67430;BME280;54298;52.076;5.264;2023-03-26T02:10:39;100468.0;;;9.23;89.99
67430;BME280;54298;52.076;5.264;2023-03-26T02:12:18;100464.0;;;9.31;89.82
67430;BME280;54298;52.076;5.264;2023-03-26T02:15:34;100460.0;;;9.3;89.95
67430;BME280;54298;52.076;5.264;2023-03-26T02:17:10;100461.0;;;9.41;89.62
67430;BME280;54298;52.076;5.264;2023-03-26T02:18:48;100455.0;;;9.34;90.03
67430;BME280;54298;52.076;5.264;2023-03-26T02:20:24;100458.0;;;9.5;89.64
67430;BME280;54298;52.076;5.264;2023-03-26T02:23:39;100455.0;;;9.57;89.35
67430;BME280;54298;52.076;5.264;2023-03-26T02:25:19;100450.0;;;9.68;88.67
67430;BME280;54298;52.076;5.264;2023-03-26T02:26:56;100449.0;;;9.66;88.58
67430;BME280;54298;52.076;5.264;2023-03-26T02:30:12;100438.0;;;9.73;88.47
67430;BME280;54298;52.076;5.264;2023-03-26T02:31:50;100438.0;;;9.75;88.42
67430;BME280;54298;52.076;5.264;2023-03-26T02:33:26;100436.0;;;9.83;88.01
67430;BME280;54298;52.076;5.264;2023-03-26T02:35:04;100435.0;;;9.8;87.84
67430;BME280;54298;52.076;5.264;2023-03-26T02:38:17;100440.0;;;9.82;87.69
67430;BME280;54298;52.076;5.264;2023-03-26T02:39:53;100439.0;;;9.88;87.64
67430;BME280;54298;52.076;5.264;2023-03-26T02:41:30;100437.0;;;9.89;87.44
67430;BME280;54298;52.076;5.264;2023-03-26T02:44:42;100432.0;;;9.98;87.05
67430;BME280;54298;52.076;5.264;2023-03-26T02:46:18;100432.0;;;10.03;86.83
67430;BME280;54298;52.076;5.264;2023-03-26T02:47:54;100428.0;;;10.03;86.75
67430;BME280;54298;52.076;5.264;2023-03-26T02:51:06;100427.0;;;9.98;86.66
67430;BME280;54298;52.076;5.264;2023-03-26T02:52:44;100425.0;;;10.07;86.39
67430;BME280;54298;52.076;5.264;2023-03-26T02:54:20;100421.0;;;9.99;86.41
67430;BME280;54298;52.076;5.264;2023-03-26T02:55:58;100416.0;;;10.06;86.33
67430;BME280;54298;52.076;5.264;2023-03-26T02:59:11;100422.0;;;10.06;86.15
67430;BME280;54298;52.076;5.264;2023-03-26T03:00:47;100424.0;;;10.06;86.06
67430;BME280;54298;52.076;5.264;2023-03-26T03:02:23;100422.0;;;10.15;85.74
67430;BME280;54298;52.076;5.264;2023-03-26T03:05:37;100420.0;;;10.05;85.68
67430;BME280;54298;52.076;5.264;2023-03-26T03:07:14;100416.0;;;10.09;85.57
67430;BME280;54298;52.076;5.264;2023-03-26T03:08:51;100417.0;;;10.15;85.43
67430;BME280;54298;52.076;5.264;2023-03-26T03:12:05;100412.0;;;10.16;85.21
67430;BME280;54298;52.076;5.264;2023-03-26T03:13:42;100405.0;;;10.14;85.48
67430;BME280;54298;52.076;5.264;2023-03-26T03:15:20;100408.0;;;10.14;85.31
67430;BME280;54298;52.076;5.264;2023-03-26T03:16:55;100401.0;;;10.19;84.99
67430;BME280;54298;52.076;5.264;2023-03-26T03:20:10;100405.0;;;10.21;84.69
67430;BME280;54298;52.076;5.264;2023-03-26T03:21:47;100400.0;;;10.14;85.12
67430;BME280;54298;52.076;5.264;2023-03-26T03:23:23;100401.0;;;10.15;85.01
67430;BME280;54298;52.076;5.264;2023-03-26T03:26:35;100403.0;;;10.11;85.12
67430;BME280;54298;52.076;5.264;2023-03-26T03:28:12;100403.0;;;10.07;84.96
67430;BME280;54298;52.076;5.264;2023-03-26T03:29:49;100402.0;;;10.14;84.88
67430;BME280;54298;52.076;5.264;2023-03-26T03:33:02;100400.0;;;10.1;84.98
67430;BME280;54298;52.076;5.264;2023-03-26T03:34:39;100400.0;;;10.15;84.93
67430;BME280;54298;52.076;5.264;2023-03-26T03:36:17;100396.0;;;10.23;84.59
67430;BME280;54298;52.076;5.264;2023-03-26T03:37:54;100394.0;;;10.15;84.43
67430;BME280;54298;52.076;5.264;2023-03-26T03:41:07;100392.0;;;10.15;84.58
67430;BME280;54298;52.076;5.264;2023-03-26T03:42:44;100391.0;;;10.15;84.57
67430;BME280;54298;52.076;5.264;2023-03-26T03:44:21;100386.0;;;10.24;84.21
67430;BME280;54298;52.076;5.264;2023-03-26T03:47:34;100385.0;;;10.25;84.16
67430;BME280;54298;52.076;5.264;2023-03-26T03:49:10;100388.0;;;10.24;84.15
67430;BME280;54298;52.076;5.264;2023-03-26T03:50:46;100380.0;;;10.24;84.09
67430;BME280;54298;52.076;5.264;2023-03-26T03:52:22;100380.0;;;10.24;84.08
67430;BME280;54298;52.076;5.264;2023-03-26T03:55:36;100377.0;;;10.18;84.25
67430;BME280;54298;52.076;5.264;2023-03-26T03:57:12;100377.0;;;10.18;84.2
67430;BME280;54298;52.076;5.264;2023-03-26T03:58:48;100373.0;;;10.17;84.23
67430;BME280;54298;52.076;5.264;2023-03-26T04:02:01;100371.0;;;10.23;83.71
67430;BME280;54298;52.076;5.264;2023-03-26T04:03:39;100368.0;;;10.16;84.16
67430;BME280;54298;52.076;5.264;2023-03-26T04:05:15;100358.0;;;10.02;84.43
67430;BME280;54298;52.076;5.264;2023-03-26T04:08:28;100351.0;;;9.97;85.15
67430;BME280;54298;52.076;5.264;2023-03-26T04:10:06;100349.0;;;9.98;85.06
67430;BME280;54298;52.076;5.264;2023-03-26T04:11:44;100355.0;;;9.92;85.82
67430;BME280;54298;52.076;5.264;2023-03-26T04:13:20;100352.0;;;9.89;85.78
67430;BME280;54298;52.076;5.264;2023-03-26T04:16:34;100356.0;;;9.89;85.92
67430;BME280;54298;52.076;5.264;2023-03-26T04:18:10;100353.0;;;9.99;85.42
67430;BME280;54298;52.076;5.264;2023-03-26T04:19:46;100352.0;;;10.06;85.07
67430;BME280;54298;52.076;5.264;2023-03-26T04:22:59;100347.0;;;10.0;85.06
67430;BME280;54298;52.076;5.264;2023-03-26T04:24:35;100346.0;;;10.07;85.17
67430;BME280;54298;52.076;5.264;2023-03-26T04:26:14;100342.0;;;9.94;85.64
67430;BME280;54298;52.076;5.264;2023-03-26T04:29:29;100334.0;;;9.9;86.03
67430;BME280;54298;52.076;5.264;2023-03-26T04:31:18;100335.0;;;9.97;85.54
67430;BME280;54298;52.076;5.264;2023-03-26T04:32:55;100330.0;;;9.97;85.52
67430;BME280;54298;52.076;5.264;2023-03-26T04:34:32;100319.0;;;10.03;85.2
67430;BME280;54298;52.076;5.264;2023-03-26T04:37:46;100319.0;;;10.05;85.05
67430;BME280;54298;52.076;5.264;2023-03-26T04:39:23;100317.0;;;10.1;84.96
67430;BME280;54298;52.076;5.264;2023-03-26T04:41:00;100307.0;;;9.98;85.23
67430;BME280;54298;52.076;5.264;2023-03-26T04:42:38;100303.0;;;9.88;85.75
67430;BME280;54298;52.076;5.264;2023-03-26T04:45:50;100308.0;;;9.81;86.28
67430;BME280;54298;52.076;5.264;2023-03-26T04:47:27;100305.0;;;9.98;85.69
67430;BME280;54298;52.076;5.264;2023-03-26T04:49:03;100302.0;;;10.05;85.1
67430;BME280;54298;52.076;5.264;2023-03-26T04:52:18;100298.0;;;10.05;85.08
67430;BME280;54298;52.076;5.264;2023-03-26T04:53:55;100290.0;;;10.11;84.71
67430;BME280;54298;52.076;5.264;2023-03-26T04:55:38;100292.0;;;10.07;84.71
67430;BME280;54298;52.076;5.264;2023-03-26T04:57:20;100289.0;;;9.75;86.3
67430;BME280;54298;52.076;5.264;2023-03-26T05:00:37;100287.0;;;10.09;85.07
67430;BME280;54298;52.076;5.264;2023-03-26T05:02:13;100280.0;;;9.98;85.48
67430;BME280;54298;52.076;5.264;2023-03-26T05:03:49;100276.0;;;9.89;86.07
67430;BME280;54298;52.076;5.264;2023-03-26T05:07:04;100271.0;;;9.69;87.33
67430;BME280;54298;52.076;5.264;2023-03-26T05:08:41;100275.0;;;9.72;87.47
67430;BME280;54298;52.076;5.264;2023-03-26T05:10:17;100273.0;;;9.67;87.84
67430;BME280;54298;52.076;5.264;2023-03-26T05:11:53;100273.0;;;9.72;87.58
67430;BME280;54298;52.076;5.264;2023-03-26T05:15:06;100274.0;;;9.81;87.16
67430;BME280;54298;52.076;5.264;2023-03-26T05:16:44;100275.0;;;9.81;86.86
67430;BME280;54298;52.076;5.264;2023-03-26T05:18:22;100271.0;;;9.64;87.5
67430;BME280;54298;52.076;5.264;2023-03-26T05:21:36;100270.0;;;9.59;88.05
67430;BME280;54298;52.076;5.264;2023-03-26T05:23:12;100264.0;;;9.75;87.54
67430;BME280;54298;52.076;5.264;2023-03-26T05:24:48;100259.0;;;9.73;87.2
67430;BME280;54298;52.076;5.264;2023-03-26T05:28:01;100258.0;;;9.73;87.3
67430;BME280;54298;52.076;5.264;2023-03-26T05:29:37;100255.0;;;9.65;87.6
67430;BME280;54298;52.076;5.264;2023-03-26T05:31:17;100252.0;;;9.65;87.7
67430;BME280;54298;52.076;5.264;2023-03-26T05:32:53;100249.0;;;9.64;87.34
67430;BME280;54298;52.076;5.264;2023-03-26T05:36:07;100250.0;;;9.73;86.72
67430;BME280;54298;52.076;5.264;2023-03-26T05:37:45;100246.0;;;9.67;86.51
67430;BME280;54298;52.076;5.264;2023-03-26T05:39:23;100241.0;;;9.64;86.79
67430;BME280;54298;52.076;5.264;2023-03-26T05:42:38;100241.0;;;9.73;86.72
67430;BME280;54298;52.076;5.264;2023-03-26T05:44:16;100238.0;;;9.73;86.51
67430;BME280;54298;52.076;5.264;2023-03-26T05:45:52;100232.0;;;9.59;87.08
67430;BME280;54298;52.076;5.264;2023-03-26T05:47:28;100233.0;;;9.53;87.41
67430;BME280;54298;52.076;5.264;2023-03-26T05:50:41;100228.0;;;9.59;87.07
67430;BME280;54298;52.076;5.264;2023-03-26T05:52:17;100221.0;;;9.58;87.22
67430;BME280;54298;52.076;5.264;2023-03-26T05:53:53;100220.0;;;9.58;87.08
67430;BME280;54298;52.076;5.264;2023-03-26T05:57:06;100222.0;;;9.67;86.66
67430;BME280;54298;52.076;5.264;2023-03-26T05:58:42;100220.0;;;9.65;86.58
67430;BME280;54298;52.076;5.264;2023-03-26T06:00:18;100215.0;;;9.76;86.14
67430;BME280;54298;52.076;5.264;2023-03-26T06:03:31;100209.0;;;9.64;86.76
67430;BME280;54298;52.076;5.264;2023-03-26T06:05:08;100215.0;;;9.63;86.96
67430;BME280;54298;52.076;5.264;2023-03-26T06:06:45;100208.0;;;9.66;86.74
67430;BME280;54298;52.076;5.264;2023-03-26T06:08:21;100208.0;;;9.58;87.13
67430;BME280;54298;52.076;5.264;2023-03-26T06:11:33;100207.0;;;9.49;87.9
67430;BME280;54298;52.076;5.264;2023-03-26T06:13:09;100203.0;;;9.56;87.83
67430;BME280;54298;52.076;5.264;2023-03-26T06:14:45;100198.0;;;9.61;87.36
67430;BME280;54298;52.076;5.264;2023-03-26T06:17:59;100202.0;;;9.61;87.09
67430;BME280;54298;52.076;5.264;2023-03-26T06:19:35;100199.0;;;9.58;87.57
67430;BME280;54298;52.076;5.264;2023-03-26T06:21:12;100197.0;;;9.47;88.0
67430;BME280;54298;52.076;5.264;2023-03-26T06:24:24;100195.0;;;9.42;88.44
67430;BME280;54298;52.076;5.264;2023-03-26T06:26:01;100194.0;;;9.4;88.16
67430;BME280;54298;52.076;5.264;2023-03-26T06:27:37;100193.0;;;9.48;88.29
67430;BME280;54298;52.076;5.264;2023-03-26T06:30:50;100182.0;;;9.55;87.84
67430;BME280;54298;52.076;5.264;2023-03-26T06:32:27;100184.0;;;9.53;87.43
67430;BME280;54298;52.076;5.264;2023-03-26T06:34:03;100183.0;;;9.6;87.25
67430;BME280;54298;52.076;5.264;2023-03-26T06:35:39;100180.0;;;9.6;87.2
67430;BME280;54298;52.076;5.264;2023-03-26T06:38:52;100176.0;;;9.64;87.2
67430;BME280;54298;52.076;5.264;2023-03-26T06:40:28;100172.0;;;9.56;87.65
67430;BME280;54298;52.076;5.264;2023-03-26T06:42:06;100176.0;;;9.61;87.49
67430;BME280;54298;52.076;5.264;2023-03-26T06:45:19;100176.0;;;9.59;87.56
67430;BME280;54298;52.076;5.264;2023-03-26T06:46:55;100176.0;;;9.59;87.61
67430;BME280;54298;52.076;5.264;2023-03-26T06:48:31;100177.0;;;9.63;87.7
67430;BME280;54298;52.076;5.264;2023-03-26T06:51:46;100174.0;;;9.53;88.33
67430;BME280;54298;52.076;5.264;2023-03-26T06:53:22;100175.0;;;9.55;88.3
67430;BME280;54298;52.076;5.264;2023-03-26T06:54:59;100177.0;;;9.56;88.2
67430;BME280;54298;52.076;5.264;2023-03-26T06:56:35;100174.0;;;9.6;87.78
67430;BME280;54298;52.076;5.264;2023-03-26T06:59:48;100173.0;;;9.65;87.79
67430;BME280;54298;52.076;5.264;2023-03-26T07:01:24;100172.0;;;9.64;87.85
67430;BME280;54298;52.076;5.264;2023-03-26T07:03:02;100171.0;;;9.72;87.84
67430;BME280;54298;52.076;5.264;2023-03-26T07:06:14;100175.0;;;9.67;87.81
67430;BME280;54298;52.076;5.264;2023-03-26T07:07:50;100180.0;;;9.73;87.55
67430;BME280;54298;52.076;5.264;2023-03-26T07:09:26;100174.0;;;9.82;87.38
67430;BME280;54298;52.076;5.264;2023-03-26T07:12:40;100172.0;;;9.86;87.25
67430;BME280;54298;52.076;5.264;2023-03-26T07:14:17;100178.0;;;9.89;87.26
67430;BME280;54298;52.076;5.264;2023-03-26T07:15:53;100175.0;;;9.92;86.94
67430;BME280;54298;52.076;5.264;2023-03-26T07:17:29;100172.0;;;9.83;87.48
67430;BME280;54298;52.076;5.264;2023-03-26T07:20:43;100170.0;;;9.83;87.67
67430;BME280;54298;52.076;5.264;2023-03-26T07:22:21;100173.0;;;9.93;87.68
67430;BME280;54298;52.076;5.264;2023-03-26T07:23:58;100170.0;;;9.89;87.56
67430;BME280;54298;52.076;5.264;2023-03-26T07:27:23;100176.0;;;9.89;87.75
67430;BME280;54298;52.076;5.264;2023-03-26T07:29:14;100174.0;;;9.93;87.56
67430;BME280;54298;52.076;5.264;2023-03-26T07:30:59;100176.0;;;9.92;87.88
67430;BME280;54298;52.076;5.264;2023-03-26T07:33:02;100172.0;;;9.84;87.95
67430;BME280;54298;52.076;5.264;2023-03-26T07:34:50;100172.0;;;9.93;87.87
67430;BME280;54298;52.076;5.264;2023-03-26T07:36:32;100169.0;;;9.98;87.85
67430;BME280;54298;52.076;5.264;2023-03-26T07:40:12;100171.0;;;10.06;87.37
67430;BME280;54298;52.076;5.264;2023-03-26T07:41:59;100175.0;;;10.21;86.88
67430;BME280;54298;52.076;5.264;2023-03-26T07:43:53;100174.0;;;10.25;86.43
67430;BME280;54298;52.076;5.264;2023-03-26T07:46:03;100171.0;;;10.17;86.38
67430;BME280;54298;52.076;5.264;2023-03-26T07:47:46;100170.0;;;10.14;85.55
67430;BME280;54298;52.076;5.264;2023-03-26T07:49:22;100168.0;;;10.14;86.04
67430;BME280;54298;52.076;5.264;2023-03-26T07:51:00;100168.0;;;10.16;85.83
67430;BME280;54298;52.076;5.264;2023-03-26T07:54:14;100168.0;;;10.0;86.37
67430;BME280;54298;52.076;5.264;2023-03-26T07:55:52;100167.0;;;10.22;85.72
67430;BME280;54298;52.076;5.264;2023-03-26T07:57:39;100165.0;;;10.22;85.38
67430;BME280;54298;52.076;5.264;2023-03-26T07:59:27;100163.0;;;10.09;85.47
67430;BME280;54298;52.076;5.264;2023-03-26T08:03:04;100162.0;;;10.08;85.71
67430;BME280;54298;52.076;5.264;2023-03-26T08:05:48;100165.0;;;10.19;85.54
67430;BME280;54298;52.076;5.264;2023-03-26T08:09:21;100163.0;;;10.06;85.6
67430;BME280;54298;52.076;5.264;2023-03-26T08:11:14;100155.0;;;10.1;85.91
67430;BME280;54298;52.076;5.264;2023-03-26T08:13:08;100161.0;;;10.13;85.71
67430;BME280;54298;52.076;5.264;2023-03-26T08:14:58;100164.0;;;10.19;85.33
67430;BME280;54298;52.076;5.264;2023-03-26T08:16:43;100155.0;;;10.23;85.09
67430;BME280;54298;52.076;5.264;2023-03-26T08:18:34;100156.0;;;10.21;85.62
67430;BME280;54298;52.076;5.264;2023-03-26T08:20:25;100158.0;;;10.28;85.46
67430;BME280;54298;52.076;5.264;2023-03-26T08:23:57;100155.0;;;10.26;85.19
67430;BME280;54298;52.076;5.264;2023-03-26T08:25:45;100156.0;;;10.39;84.61
67430;BME280;54298;52.076;5.264;2023-03-26T08:27:31;100153.0;;;10.42;84.53
67430;BME280;54298;52.076;5.264;2023-03-26T08:29:18;100157.0;;;10.29;85.11
67430;BME280;54298;52.076;5.264;2023-03-26T08:31:01;100153.0;;;10.48;84.28
67430;BME280;54298;52.076;5.264;2023-03-26T08:34:15;100155.0;;;10.44;83.91
67430;BME280;54298;52.076;5.264;2023-03-26T08:35:51;100152.0;;;10.33;84.37
67430;BME280;54298;52.076;5.264;2023-03-26T08:37:28;100157.0;;;10.37;84.67
67430;BME280;54298;52.076;5.264;2023-03-26T08:39:04;100156.0;;;10.34;84.84
67430;BME280;54298;52.076;5.264;2023-03-26T08:44:49;100159.0;;;10.55;84.42
67430;BME280;54298;52.076;5.264;2023-03-26T08:48:25;100152.0;;;10.64;84.3
67430;BME280;54298;52.076;5.264;2023-03-26T08:51:02;100155.0;;;10.68;83.78
67430;BME280;54298;52.076;5.264;2023-03-26T08:55:09;100152.0;;;10.59;84.45
67430;BME280;54298;52.076;5.264;2023-03-26T08:57:02;100155.0;;;10.67;84.46
67430;BME280;54298;52.076;5.264;2023-03-26T09:02:46;100158.0;;;10.77;84.04
67430;BME280;54298;52.076;5.264;2023-03-26T09:06:51;100156.0;;;10.77;83.95
67430;BME280;54298;52.076;5.264;2023-03-26T09:10:37;100158.0;;;10.71;84.27
67430;BME280;54298;52.076;5.264;2023-03-26T09:13:35;100157.0;;;10.73;83.82
67430;BME280;54298;52.076;5.264;2023-03-26T09:16:16;100160.0;;;10.7;84.07
67430;BME280;54298;52.076;5.264;2023-03-26T09:18:43;100158.0;;;10.62;83.95
67430;BME280;54298;52.076;5.264;2023-03-26T09:22:46;100156.0;;;10.5;84.37
67430;BME280;54298;52.076;5.264;2023-03-26T09:26:23;100153.0;;;10.62;84.8
67430;BME280;54298;52.076;5.264;2023-03-26T09:28:16;100153.0;;;10.63;84.87
67430;BME280;54298;52.076;5.264;2023-03-26T09:30:47;100156.0;;;10.69;84.73
67430;BME280;54298;52.076;5.264;2023-03-26T09:33:42;100149.0;;;10.64;84.75
67430;BME280;54298;52.076;5.264;2023-03-26T09:35:49;100152.0;;;10.51;85.83
67430;BME280;54298;52.076;5.264;2023-03-26T09:39:28;100159.0;;;10.55;85.31
67430;BME280;54298;52.076;5.264;2023-03-26T09:41:15;100151.0;;;10.41;85.82
67430;BME280;54298;52.076;5.264;2023-03-26T09:42:55;100156.0;;;10.08;85.81
67430;BME280;54298;52.076;5.264;2023-03-26T09:44:53;100157.0;;;10.08;85.91
67430;BME280;54298;52.076;5.264;2023-03-26T09:51:19;100163.0;;;9.72;86.2
67430;BME280;54298;52.076;5.264;2023-03-26T09:54:12;100162.0;;;9.66;85.98
67430;BME280;54298;52.076;5.264;2023-03-26T09:56:14;100156.0;;;9.69;86.14
67430;BME280;54298;52.076;5.264;2023-03-26T09:58:06;100164.0;;;9.66;86.59
67430;BME280;54298;52.076;5.264;2023-03-26T10:00:14;100166.0;;;9.56;87.44
67430;BME280;54298;52.076;5.264;2023-03-26T10:02:11;100167.0;;;9.65;87.61
67430;BME280;54298;52.076;5.264;2023-03-26T10:04:01;100168.0;;;9.65;87.72
67430;BME280;54298;52.076;5.264;2023-03-26T10:06:01;100171.0;;;9.68;87.73
67430;BME280;54298;52.076;5.264;2023-03-26T10:07:55;100174.0;;;9.51;88.13
67430;BME280;54298;52.076;5.264;2023-03-26T10:09:44;100178.0;;;9.75;87.6
67430;BME280;54298;52.076;5.264;2023-03-26T10:11:36;100176.0;;;9.64;87.48
67430;BME280;54298;52.076;5.264;2023-03-26T10:13:41;100177.0;;;9.8;86.77
67430;BME280;54298;52.076;5.264;2023-03-26T10:15:31;100182.0;;;9.75;87.28
67430;BME280;54298;52.076;5.264;2023-03-26T10:19:21;100178.0;;;9.56;87.66
67430;BME280;54298;52.076;5.264;2023-03-26T10:21:06;100184.0;;;9.64;87.44
67430;BME280;54298;52.076;5.264;2023-03-26T10:22:59;100184.0;;;9.57;87.79
67430;BME280;54298;52.076;5.264;2023-03-26T10:25:21;100186.0;;;9.58;87.26
67430;BME280;54298;52.076;5.264;2023-03-26T10:27:10;100194.0;;;9.46;87.75
67430;BME280;54298;52.076;5.264;2023-03-26T10:29:14;100190.0;;;9.55;87.91
67430;BME280;54298;52.076;5.264;2023-03-26T10:32:06;100190.0;;;9.53;87.62
67430;BME280;54298;52.076;5.264;2023-03-26T10:35:46;100191.0;;;9.72;87.61
67430;BME280;54298;52.076;5.264;2023-03-26T10:37:35;100195.0;;;9.66;87.66
67430;BME280;54298;52.076;5.264;2023-03-26T10:39:29;100197.0;;;9.63;87.98
67430;BME280;54298;52.076;5.264;2023-03-26T10:41:23;100198.0;;;9.63;86.85
67430;BME280;54298;52.076;5.264;2023-03-26T10:43:20;100201.0;;;9.78;86.83
67430;BME280;54298;52.076;5.264;2023-03-26T10:49:42;100203.0;;;9.64;86.94
67430;BME280;54298;52.076;5.264;2023-03-26T10:51:38;100205.0;;;9.74;86.68
67430;BME280;54298;52.076;5.264;2023-03-26T10:53:26;100203.0;;;9.86;86.66
67430;BME280;54298;52.076;5.264;2023-03-26T10:55:10;100209.0;;;9.94;86.55
67430;BME280;54298;52.076;5.264;2023-03-26T10:58:30;100211.0;;;9.82;86.46
67430;BME280;54298;52.076;5.264;2023-03-26T11:00:17;100214.0;;;9.89;86.46
67430;BME280;54298;52.076;5.264;2023-03-26T11:02:03;100217.0;;;9.69;86.9
67430;BME280;54298;52.076;5.264;2023-03-26T11:03:49;100218.0;;;9.48;86.38
67430;BME280;54298;52.076;5.264;2023-03-26T11:05:43;100225.0;;;9.49;85.4
67430;BME280;54298;52.076;5.264;2023-03-26T11:09:21;100223.0;;;9.31;86.41
67430;BME280;54298;52.076;5.264;2023-03-26T11:11:04;100228.0;;;9.23;85.99
67430;BME280;54298;52.076;5.264;2023-03-26T11:12:52;100231.0;;;9.25;85.93
67430;BME280;54298;52.076;5.264;2023-03-26T11:14:38;100232.0;;;9.06;85.83
67430;BME280;54298;52.076;5.264;2023-03-26T11:16:24;100230.0;;;9.28;85.86
67430;BME280;54298;52.076;5.264;2023-03-26T11:18:12;100228.0;;;8.83;87.72
67430;BME280;54298;52.076;5.264;2023-03-26T11:21:39;100232.0;;;8.72;87.57
67430;BME280;54298;52.076;5.264;2023-03-26T11:23:31;100234.0;;;8.69;88.95
67430;BME280;54298;52.076;5.264;2023-03-26T11:28:06;100236.0;;;8.58;89.28
67430;BME280;54298;52.076;5.264;2023-03-26T11:29:50;100241.0;;;8.86;89.25
67430;BME280;54298;52.076;5.264;2023-03-26T11:31:41;100245.0;;;8.89;88.95
67430;BME280;54298;52.076;5.264;2023-03-26T11:33:25;100244.0;;;9.06;88.28
67430;BME280;54298;52.076;5.264;2023-03-26T11:35:06;100247.0;;;9.16;88.61
67430;BME280;54298;52.076;5.264;2023-03-26T11:36:52;100252.0;;;9.3;88.43
67430;BME280;54298;52.076;5.264;2023-03-26T11:40:15;100253.0;;;9.26;87.83
67430;BME280;54298;52.076;5.264;2023-03-26T11:42:02;100257.0;;;9.47;87.28
67430;BME280;54298;52.076;5.264;2023-03-26T11:43:43;100258.0;;;9.56;87.23
67430;BME280;54298;52.076;5.264;2023-03-26T11:45:23;100261.0;;;9.23;86.45
67430;BME280;54298;52.076;5.264;2023-03-26T11:48:47;100260.0;;;9.19;85.96